Time;durP1;ratioP1;P1;durP2;ratioP2;P2;SDS_P1;SDS_P2;PMS_P1;PMS_P2;Temp;Humidity;BMP_temperature;BMP_pressure;BME280_temperature;BME280_humidity;BME280_pressure;Samples;Min_cycle;Max_cycle;Signal;HPM_P1;HPM_P2
2022/08/18 00:01:16;;;;;;;7.35;6.70;;;;;;;;;;5041358;28;20226;-70
2022/08/18 00:03:43;;;;;;;13.25;7.10;;;;;;;;;;5041126;28;20242;-70
2022/08/18 00:06:09;;;;;;;7.15;6.50;;;;;;;;;;5040734;28;20221;-70
2022/08/18 00:08:37;;;;;;;7.55;6.78;;;;;;;;;;5041413;28;20243;-69
2022/08/18 00:11:03;;;;;;;8.02;7.22;;;;;;;;;;5041216;28;20547;-68
2022/08/18 00:13:29;;;;;;;7.32;6.57;;;;;;;;;;5040842;28;20206;-68
2022/08/18 00:15:55;;;;;;;7.80;6.75;;;;;;;;;;5041125;28;20235;-68
2022/08/18 00:18:22;;;;;;;7.25;6.53;;;;;;;;;;5040979;28;20236;-69
2022/08/18 00:20:48;;;;;;;7.53;6.93;;;;;;;;;;5040914;28;20225;-69
2022/08/18 00:23:15;;;;;;;6.85;6.45;;;;;;;;;;5040994;28;20237;-69
2022/08/18 00:25:44;;;;;;;7.25;6.60;;;;;;;;;;5040938;28;20201;-69
2022/08/18 00:28:10;;;;;;;10.70;6.80;;;;;;;;;;5040080;28;20198;-69
2022/08/18 00:30:37;;;;;;;7.43;6.43;;;;;;;;;;5041002;28;20232;-69
2022/08/18 00:33:03;;;;;;;7.20;6.45;;;;;;;;;;5040783;28;20269;-70
2022/08/18 00:35:31;;;;;;;7.38;6.88;;;;;;;;;;5040854;28;20209;-69
2022/08/18 00:37:59;;;;;;;7.60;6.90;;;;;;;;;;5040317;28;20198;-69
2022/08/18 00:40:28;;;;;;;7.70;7.10;;;;;;;;;;5040699;28;20220;-68
2022/08/18 00:42:57;;;;;;;7.15;6.25;;;;;;;;;;5040743;28;20220;-68
2022/08/18 00:45:26;;;;;;;7.22;6.63;;;;;;;;;;5040492;28;20204;-68
2022/08/18 00:47:52;;;;;;;6.88;6.22;;;;;;;;;;5040232;28;20204;-68
2022/08/18 00:50:22;;;;;;;6.85;6.40;;;;;;;;;;5040644;28;20243;-68
2022/08/18 00:52:51;;;;;;;6.82;6.22;;;;;;;;;;5040700;28;20198;-68
2022/08/18 00:55:18;;;;;;;8.27;6.70;;;;;;;;;;5040369;28;20627;-68
2022/08/18 00:57:45;;;;;;;6.70;6.20;;;;;;;;;;5040196;28;20245;-68
2022/08/18 01:00:13;;;;;;;6.90;6.40;;;;;;;;;;5040441;28;20210;-68
2022/08/18 01:02:42;;;;;;;6.60;6.00;;;;;;;;;;5040424;28;20236;-68
2022/08/18 01:05:11;;;;;;;5.95;5.47;;;;;;;;;;5040383;28;20350;-68
2022/08/18 01:07:41;;;;;;;7.20;6.60;;;;;;;;;;5040100;28;20197;-69
2022/08/18 01:10:08;;;;;;;6.63;6.10;;;;;;;;;;5040208;28;20206;-69
2022/08/18 01:12:34;;;;;;;6.40;5.80;;;;;;;;;;5040130;28;20194;-69
2022/08/18 01:15:00;;;;;;;6.90;6.30;;;;;;;;;;5040283;28;20214;-69
2022/08/18 01:23:00;;;;;;;6.32;5.82;;;;;;;;;;5039988;28;20220;-69
2022/08/18 01:28:10;;;;;;;6.50;6.00;;;;;;;;;;5039745;28;20193;-69
2022/08/18 01:30:46;;;;;;;6.30;5.57;;;;;;;;;;5039913;28;20235;-69
2022/08/18 01:33:12;;;;;;;6.78;6.18;;;;;;;;;;5039903;28;20205;-69
2022/08/18 01:35:40;;;;;;;8.98;5.82;;;;;;;;;;5039998;28;20254;-69
2022/08/18 01:38:07;;;;;;;7.03;5.03;;;;;;;;;;5039439;28;20205;-69
2022/08/18 01:40:34;;;;;;;5.82;5.50;;;;;;;;;;5039175;28;20251;-69
2022/08/18 01:43:02;;;;;;;5.63;5.22;;;;;;;;;;5039657;28;20250;-69
2022/08/18 01:45:30;;;;;;;5.78;5.35;;;;;;;;;;5039020;28;20505;-69
2022/08/18 01:47:58;;;;;;;5.70;5.40;;;;;;;;;;5039583;28;20202;-70
2022/08/18 01:50:24;;;;;;;5.95;5.45;;;;;;;;;;5039681;28;20219;-70
2022/08/18 01:52:52;;;;;;;6.38;5.97;;;;;;;;;;5039679;28;20190;-70
2022/08/18 01:55:19;;;;;;;5.13;4.80;;;;;;;;;;5039522;28;20213;-70
2022/08/18 01:57:46;;;;;;;5.15;4.85;;;;;;;;;;5039450;28;20382;-68
2022/08/18 02:00:13;;;;;;;4.95;4.75;;;;;;;;;;5039734;28;20232;-70
2022/08/18 02:02:40;;;;;;;5.00;4.78;;;;;;;;;;5039900;28;20229;-70
2022/08/18 02:05:08;;;;;;;4.55;4.25;;;;;;;;;;5039412;28;20218;-70
2022/08/18 02:07:35;;;;;;;5.00;4.70;;;;;;;;;;5039521;28;20235;-70
2022/08/18 02:10:01;;;;;;;4.80;4.50;;;;;;;;;;5039429;28;20428;-70
2022/08/18 02:12:29;;;;;;;4.88;4.57;;;;;;;;;;5039212;28;20200;-70
2022/08/18 02:14:55;;;;;;;6.15;4.78;;;;;;;;;;5039450;28;20198;-70
2022/08/18 02:17:22;;;;;;;5.50;5.20;;;;;;;;;;5039423;28;20198;-70
2022/08/18 02:19:48;;;;;;;5.00;4.68;;;;;;;;;;5039414;28;20448;-70
2022/08/18 02:22:16;;;;;;;5.25;4.95;;;;;;;;;;5039254;28;20225;-70
2022/08/18 02:24:43;;;;;;;4.90;4.50;;;;;;;;;;5039311;28;20242;-71
2022/08/18 02:27:09;;;;;;;5.30;4.80;;;;;;;;;;5038968;28;20198;-70
2022/08/18 02:29:37;;;;;;;5.97;4.90;;;;;;;;;;5039547;28;20201;-70
2022/08/18 02:32:04;;;;;;;5.38;4.90;;;;;;;;;;5039212;28;20491;-70
2022/08/18 02:34:31;;;;;;;5.50;5.18;;;;;;;;;;5039139;28;20235;-70
2022/08/18 02:36:58;;;;;;;5.70;5.20;;;;;;;;;;5038738;28;20235;-70
2022/08/18 02:39:25;;;;;;;5.60;5.22;;;;;;;;;;5039106;28;20209;-70
2022/08/18 02:41:52;;;;;;;5.72;5.28;;;;;;;;;;5038866;28;20241;-70
2022/08/18 02:44:18;;;;;;;5.13;4.80;;;;;;;;;;5039065;28;20273;-70
2022/08/18 02:46:46;;;;;;;4.70;4.50;;;;;;;;;;5038855;28;20251;-70
2022/08/18 02:49:12;;;;;;;5.03;4.70;;;;;;;;;;5039127;28;20243;-70
2022/08/18 02:51:38;;;;;;;5.43;4.95;;;;;;;;;;5041454;28;20194;-71
2022/08/18 02:54:08;;;;;;;5.35;4.93;;;;;;;;;;5042267;28;20197;-70
2022/08/18 02:56:34;;;;;;;5.07;4.82;;;;;;;;;;5042095;28;20202;-70
2022/08/18 02:59:03;;;;;;;5.13;4.82;;;;;;;;;;5042516;28;20202;-70
2022/08/18 03:01:31;;;;;;;5.43;4.50;;;;;;;;;;5042162;28;20404;-70
2022/08/18 03:03:59;;;;;;;5.53;5.07;;;;;;;;;;5042135;28;20509;-70
2022/08/18 03:06:26;;;;;;;5.60;5.20;;;;;;;;;;5042005;28;20229;-70
2022/08/18 03:08:52;;;;;;;5.18;4.97;;;;;;;;;;5042102;28;20210;-70
2022/08/18 03:11:20;;;;;;;5.43;5.07;;;;;;;;;;5042222;28;20221;-70
2022/08/18 03:13:46;;;;;;;5.93;5.60;;;;;;;;;;5042200;28;20202;-70
2022/08/18 03:16:13;;;;;;;5.68;5.38;;;;;;;;;;5041991;28;20197;-70
2022/08/18 03:18:40;;;;;;;5.63;5.30;;;;;;;;;;5041887;28;20211;-70
2022/08/18 03:21:08;;;;;;;5.57;5.18;;;;;;;;;;5042096;28;20194;-70
2022/08/18 03:23:35;;;;;;;6.40;5.82;;;;;;;;;;5041837;28;20197;-70
2022/08/18 03:26:01;;;;;;;6.50;5.90;;;;;;;;;;5041839;28;20243;-70
2022/08/18 03:28:28;;;;;;;5.72;5.25;;;;;;;;;;5041811;28;20243;-70
2022/08/18 03:30:54;;;;;;;6.25;5.70;;;;;;;;;;5041758;28;20529;-70
2022/08/18 03:33:21;;;;;;;6.35;5.85;;;;;;;;;;5041721;28;20236;-70
2022/08/18 03:35:47;;;;;;;5.80;5.50;;;;;;;;;;5041694;28;20242;-70
2022/08/18 03:38:15;;;;;;;6.20;5.78;;;;;;;;;;5041740;28;20201;-70
2022/08/18 03:40:42;;;;;;;5.78;5.47;;;;;;;;;;5041586;28;20210;-70
2022/08/18 03:43:08;;;;;;;6.55;6.15;;;;;;;;;;5041602;28;20248;-70
2022/08/18 03:45:34;;;;;;;6.28;5.88;;;;;;;;;;5041569;28;20431;-70
2022/08/18 03:48:00;;;;;;;7.47;6.43;;;;;;;;;;5041405;28;20201;-70
2022/08/18 03:50:27;;;;;;;6.97;6.53;;;;;;;;;;5041391;28;20197;-70
2022/08/18 03:52:54;;;;;;;6.78;6.18;;;;;;;;;;5041749;28;20239;-70
2022/08/18 03:55:21;;;;;;;6.40;6.00;;;;;;;;;;5041274;28;20521;-70
2022/08/18 03:57:47;;;;;;;6.97;6.43;;;;;;;;;;5041272;28;20529;-70
2022/08/18 04:00:14;;;;;;;6.13;5.72;;;;;;;;;;5041476;28;20417;-70
2022/08/18 04:02:40;;;;;;;6.72;6.13;;;;;;;;;;5040856;28;20229;-70
2022/08/18 04:05:08;;;;;;;7.05;6.50;;;;;;;;;;5041061;28;20225;-70
2022/08/18 04:07:35;;;;;;;7.53;6.93;;;;;;;;;;5041196;28;20198;-70
2022/08/18 04:10:01;;;;;;;7.43;6.82;;;;;;;;;;5041253;28;20204;-70
2022/08/18 04:12:29;;;;;;;7.20;6.70;;;;;;;;;;5041443;28;20193;-70
2022/08/18 04:14:55;;;;;;;6.95;6.35;;;;;;;;;;5041149;28;20198;-70
2022/08/18 04:17:23;;;;;;;7.15;6.60;;;;;;;;;;5040785;28;20220;-70
2022/08/18 04:19:50;;;;;;;7.65;7.05;;;;;;;;;;5040970;28;20243;-70
2022/08/18 04:22:17;;;;;;;6.82;6.35;;;;;;;;;;5040857;28;20225;-70
2022/08/18 04:24:43;;;;;;;8.48;7.28;;;;;;;;;;5041192;28;20198;-70
2022/08/18 04:27:10;;;;;;;7.47;6.88;;;;;;;;;;5040626;28;20498;-70
2022/08/18 04:29:37;;;;;;;8.65;7.95;;;;;;;;;;5040960;28;20202;-70
2022/08/18 04:32:04;;;;;;;9.30;8.10;;;;;;;;;;5040860;28;20356;-70
2022/08/18 04:34:31;;;;;;;8.65;7.82;;;;;;;;;;5040944;28;20205;-70
2022/08/18 04:36:57;;;;;;;9.45;8.55;;;;;;;;;;5040735;28;20205;-71
2022/08/18 04:39:24;;;;;;;9.15;8.45;;;;;;;;;;5041098;28;20202;-70
2022/08/18 04:41:51;;;;;;;9.15;8.25;;;;;;;;;;5040645;28;20218;-70
2022/08/18 04:44:17;;;;;;;11.25;9.10;;;;;;;;;;5040646;28;20198;-71
2022/08/18 04:46:46;;;;;;;10.13;9.23;;;;;;;;;;5040248;28;20198;-71
2022/08/18 04:49:13;;;;;;;13.20;11.30;;;;;;;;;;5040807;28;20197;-71
2022/08/18 04:51:40;;;;;;;10.63;9.82;;;;;;;;;;5040774;28;20198;-70
2022/08/18 04:54:05;;;;;;;10.80;9.40;;;;;;;;;;5040622;28;20231;-70
2022/08/18 04:56:33;;;;;;;10.38;9.40;;;;;;;;;;5040041;28;20431;-71
2022/08/18 04:59:01;;;;;;;11.02;10.10;;;;;;;;;;5040519;28;20288;-71
2022/08/18 05:01:28;;;;;;;10.43;9.52;;;;;;;;;;5040279;28;20202;-70
2022/08/18 05:03:57;;;;;;;10.75;9.63;;;;;;;;;;5040464;28;20218;-70
2022/08/18 05:06:25;;;;;;;10.40;9.60;;;;;;;;;;5040068;28;20291;-70
2022/08/18 05:08:52;;;;;;;10.07;9.13;;;;;;;;;;5040275;28;20435;-70
2022/08/18 05:11:18;;;;;;;10.75;9.73;;;;;;;;;;5040211;28;20202;-70
2022/08/18 05:13:45;;;;;;;11.75;9.15;;;;;;;;;;5039866;28;20239;-70
2022/08/18 05:16:11;;;;;;;10.73;9.50;;;;;;;;;;5040246;28;20209;-70
2022/08/18 05:18:39;;;;;;;10.40;9.45;;;;;;;;;;5039678;28;20201;-70
2022/08/18 05:21:07;;;;;;;10.02;9.23;;;;;;;;;;5039655;28;20213;-70
2022/08/18 05:23:35;;;;;;;10.82;9.82;;;;;;;;;;5039321;28;20256;-70
2022/08/18 05:26:02;;;;;;;11.50;10.05;;;;;;;;;;5039393;28;20201;-70
2022/08/18 05:28:28;;;;;;;10.25;9.45;;;;;;;;;;5039413;28;20268;-71
2022/08/18 05:30:55;;;;;;;12.35;9.73;;;;;;;;;;5039496;28;20198;-70
2022/08/18 05:33:22;;;;;;;11.55;9.25;;;;;;;;;;5039336;28;20193;-70
2022/08/18 05:35:51;;;;;;;10.13;9.10;;;;;;;;;;5039308;28;20198;-70
2022/08/18 05:38:28;;;;;;;8.85;8.18;;;;;;;;;;5039990;28;20225;-70
2022/08/18 05:41:08;;;;;;;9.98;8.98;;;;;;;;;;5043392;28;20224;-70
2022/08/18 05:43:34;;;;;;;8.93;8.32;;;;;;;;;;5039021;28;20285;-69
2022/08/18 05:46:04;;;;;;;11.38;8.63;;;;;;;;;;5039162;28;20221;-70
2022/08/18 05:48:30;;;;;;;8.70;7.75;;;;;;;;;;5039003;28;20265;-70
2022/08/18 05:51:01;;;;;;;7.82;7.28;;;;;;;;;;5039132;28;20206;-70
2022/08/18 05:58:56;;;;;;;8.35;7.65;;;;;;;;;;5038663;28;20255;-70
2022/08/18 06:01:23;;;;;;;9.55;8.70;;;;;;;;;;5038914;28;20548;-70
2022/08/18 06:03:53;;;;;;;9.02;8.18;;;;;;;;;;5039373;28;20435;-70
2022/08/18 06:06:21;;;;;;;10.80;8.57;;;;;;;;;;5038702;28;20217;-70
2022/08/18 06:08:52;;;;;;;9.45;8.50;;;;;;;;;;5038827;28;20251;-70
2022/08/18 06:11:18;;;;;;;15.23;9.20;;;;;;;;;;5038997;28;20198;-70
2022/08/18 06:13:44;;;;;;;11.45;8.60;;;;;;;;;;5038816;28;20219;-70
2022/08/18 06:16:13;;;;;;;10.60;8.43;;;;;;;;;;5038458;28;20202;-70
2022/08/18 06:18:44;;;;;;;8.60;7.78;;;;;;;;;;5038880;28;20255;-70
2022/08/18 06:21:18;;;;;;;8.50;7.10;;;;;;;;;;5038940;28;20201;-70
2022/08/18 06:23:48;;;;;;;8.85;8.15;;;;;;;;;;5038576;28;20604;-70
2022/08/18 06:26:19;;;;;;;9.98;9.07;;;;;;;;;;5043162;28;20213;-70
2022/08/18 06:28:51;;;;;;;10.43;8.15;;;;;;;;;;5045032;28;20253;-70
2022/08/18 06:31:21;;;;;;;7.47;6.85;;;;;;;;;;5045267;28;20206;-70
2022/08/18 06:33:52;;;;;;;7.53;7.03;;;;;;;;;;5045012;28;20201;-70
2022/08/18 06:36:21;;;;;;;8.30;7.50;;;;;;;;;;5044948;28;20506;-70
2022/08/18 06:38:52;;;;;;;7.93;7.22;;;;;;;;;;5045014;28;20206;-70
2022/08/18 06:41:21;;;;;;;8.15;7.35;;;;;;;;;;5045010;28;20208;-70
2022/08/18 06:43:56;;;;;;;8.20;7.50;;;;;;;;;;5045137;28;20228;-70
2022/08/18 06:46:28;;;;;;;8.07;7.40;;;;;;;;;;5044801;28;20205;-70
2022/08/18 06:48:56;;;;;;;8.75;7.95;;;;;;;;;;5045164;28;20235;-70
2022/08/18 06:51:26;;;;;;;9.18;8.40;;;;;;;;;;5044851;28;20198;-70
2022/08/18 06:53:56;;;;;;;11.68;8.98;;;;;;;;;;5044611;28;20209;-70
2022/08/18 06:56:25;;;;;;;9.93;9.10;;;;;;;;;;5044848;28;20470;-70
2022/08/18 06:58:53;;;;;;;9.98;9.13;;;;;;;;;;5044926;28;20233;-70
2022/08/18 07:01:19;;;;;;;12.52;9.18;;;;;;;;;;5044691;28;20197;-70
2022/08/18 07:03:49;;;;;;;10.25;9.23;;;;;;;;;;5044709;28;20442;-70
2022/08/18 07:06:25;;;;;;;11.98;9.38;;;;;;;;;;5044822;28;20557;-70
2022/08/18 07:08:53;;;;;;;9.98;8.95;;;;;;;;;;5044672;28;20201;-70
2022/08/18 07:11:20;;;;;;;9.57;8.45;;;;;;;;;;5044781;28;20226;-70
2022/08/18 07:13:49;;;;;;;9.35;8.63;;;;;;;;;;5044846;28;20370;-70
2022/08/18 07:16:16;;;;;;;8.90;8.20;;;;;;;;;;5044427;28;20201;-70
2022/08/18 07:18:43;;;;;;;9.38;8.57;;;;;;;;;;5044476;28;20222;-70
2022/08/18 07:21:23;;;;;;;9.30;8.40;;;;;;;;;;5044632;28;20224;-70
2022/08/18 07:23:57;;;;;;;10.77;9.02;;;;;;;;;;5044502;28;20275;-70
2022/08/18 07:26:23;;;;;;;12.25;11.13;;;;;;;;;;5044641;28;20190;-70
2022/08/18 07:28:52;;;;;;;9.18;8.32;;;;;;;;;;5044557;28;20339;-70
2022/08/18 07:31:33;;;;;;;11.00;8.52;;;;;;;;;;5044304;28;20194;-70
2022/08/18 07:34:02;;;;;;;9.07;8.32;;;;;;;;;;5044604;28;20265;-70
2022/08/18 07:36:32;;;;;;;8.80;8.00;;;;;;;;;;5043586;28;20243;-70
2022/08/18 07:39:02;;;;;;;9.85;8.60;;;;;;;;;;5041194;28;20201;-70
2022/08/18 07:41:31;;;;;;;9.38;8.38;;;;;;;;;;5040915;28;20198;-70
2022/08/18 07:44:03;;;;;;;9.00;8.13;;;;;;;;;;5041161;28;20226;-70
2022/08/18 07:46:34;;;;;;;8.05;7.45;;;;;;;;;;5040904;28;20528;-70
2022/08/18 07:49:00;;;;;;;8.40;7.60;;;;;;;;;;5041051;28;20220;-70
2022/08/18 07:51:32;;;;;;;8.00;7.20;;;;;;;;;;5040988;28;20201;-70
2022/08/18 07:54:00;;;;;;;8.57;7.75;;;;;;;;;;5040889;28;20206;-70
2022/08/18 07:56:31;;;;;;;8.38;7.63;;;;;;;;;;5040436;28;20201;-70
2022/08/18 07:58:59;;;;;;;8.88;8.00;;;;;;;;;;5041031;28;20202;-70
2022/08/18 08:01:33;;;;;;;8.50;7.90;;;;;;;;;;5040977;28;20220;-70
2022/08/18 08:04:01;;;;;;;8.10;7.60;;;;;;;;;;5040841;28;20225;-70
2022/08/18 08:06:30;;;;;;;8.75;7.95;;;;;;;;;;5040398;28;20254;-70
2022/08/18 08:08:59;;;;;;;8.35;7.55;;;;;;;;;;5040574;28;20210;-70
2022/08/18 08:11:31;;;;;;;8.65;8.05;;;;;;;;;;5040936;28;20198;-70
2022/08/18 08:14:05;;;;;;;8.30;7.60;;;;;;;;;;5040705;28;20266;-70
2022/08/18 08:16:37;;;;;;;8.23;7.43;;;;;;;;;;5040361;28;20374;-70
2022/08/18 08:19:08;;;;;;;8.85;7.60;;;;;;;;;;5040476;28;20198;-70
2022/08/18 08:21:37;;;;;;;8.98;7.80;;;;;;;;;;5040508;28;20262;-70
2022/08/18 08:24:09;;;;;;;8.32;7.47;;;;;;;;;;5040232;28;20225;-70
2022/08/18 08:26:43;;;;;;;8.25;7.53;;;;;;;;;;5040030;28;20250;-70
2022/08/18 08:29:14;;;;;;;11.15;8.38;;;;;;;;;;5040367;28;20206;-70
2022/08/18 08:31:44;;;;;;;8.63;7.68;;;;;;;;;;5040166;28;20202;-70
2022/08/18 08:34:14;;;;;;;9.00;8.15;;;;;;;;;;5040357;28;20423;-70
2022/08/18 08:36:43;;;;;;;11.43;8.68;;;;;;;;;;5040094;28;20250;-70
2022/08/18 08:39:12;;;;;;;9.07;8.32;;;;;;;;;;5040068;28;20202;-70
2022/08/18 08:41:40;;;;;;;8.45;7.57;;;;;;;;;;5040162;28;20206;-70
2022/08/18 08:44:09;;;;;;;7.95;7.35;;;;;;;;;;5040064;28;20226;-70
2022/08/18 08:46:41;;;;;;;8.45;7.15;;;;;;;;;;5039870;28;20242;-70
2022/08/18 08:49:12;;;;;;;8.57;7.60;;;;;;;;;;5039459;28;20253;-70
2022/08/18 08:51:41;;;;;;;7.75;7.18;;;;;;;;;;5040057;28;20243;-70
2022/08/18 08:54:11;;;;;;;8.00;7.30;;;;;;;;;;5039877;28;20206;-70
2022/08/18 08:56:42;;;;;;;7.82;7.20;;;;;;;;;;5040098;28;20205;-70
2022/08/18 08:59:10;;;;;;;8.50;7.80;;;;;;;;;;5040165;28;20243;-70
2022/08/18 09:01:40;;;;;;;7.95;7.10;;;;;;;;;;5039655;28;20255;-70
2022/08/18 09:04:16;;;;;;;9.07;8.23;;;;;;;;;;5039670;28;20218;-70
2022/08/18 09:06:47;;;;;;;9.95;8.25;;;;;;;;;;5039474;28;20262;-70
2022/08/18 09:09:23;;;;;;;8.23;7.53;;;;;;;;;;5039601;28;20201;-70
2022/08/18 09:12:04;;;;;;;8.40;7.70;;;;;;;;;;5039787;28;20205;-70
2022/08/18 09:14:42;;;;;;;8.80;8.10;;;;;;;;;;5039666;28;20198;-70
2022/08/18 09:17:13;;;;;;;7.70;6.82;;;;;;;;;;5039408;28;20235;-70
2022/08/18 09:19:53;;;;;;;8.02;7.32;;;;;;;;;;5039497;28;20213;-70
2022/08/18 09:22:26;;;;;;;8.05;7.35;;;;;;;;;;5039588;28;20224;-70
2022/08/18 09:24:54;;;;;;;9.48;8.63;;;;;;;;;;5039561;28;20225;-70
2022/08/18 09:27:32;;;;;;;10.23;7.75;;;;;;;;;;5039191;28;20242;-70
2022/08/18 09:29:59;;;;;;;9.88;8.10;;;;;;;;;;5039766;28;20212;-70
2022/08/18 09:32:38;;;;;;;8.85;8.15;;;;;;;;;;5039562;28;20243;-70
2022/08/18 09:35:13;;;;;;;9.73;8.45;;;;;;;;;;5039139;28;20208;-70
2022/08/18 09:37:45;;;;;;;9.80;8.88;;;;;;;;;;5039273;28;20242;-70
2022/08/18 09:43:05;;;;;;;9.93;9.00;;;;;;;;;;5039033;28;20511;-70
2022/08/18 09:45:52;;;;;;;9.10;7.80;;;;;;;;;;5039591;28;20198;-70
2022/08/18 09:48:23;;;;;;;12.10;8.38;;;;;;;;;;5038992;28;20197;-70
2022/08/18 09:50:55;;;;;;;9.07;8.38;;;;;;;;;;5038903;28;20244;-70
2022/08/18 09:53:33;;;;;;;10.05;9.18;;;;;;;;;;5039121;28;20347;-70
2022/08/18 09:55:59;;;;;;;9.80;8.90;;;;;;;;;;5038974;28;20197;-70
2022/08/18 09:58:44;;;;;;;9.82;8.60;;;;;;;;;;5038881;28;20197;-70
2022/08/18 10:01:20;;;;;;;10.07;9.15;;;;;;;;;;5038850;28;20490;-70
2022/08/18 10:04:01;;;;;;;12.65;8.55;;;;;;;;;;5039721;28;20441;-70
2022/08/18 10:06:29;;;;;;;11.20;8.57;;;;;;;;;;5039375;28;20255;-71
2022/08/18 10:09:06;;;;;;;10.38;9.27;;;;;;;;;;5039684;28;20204;-70
2022/08/18 10:11:55;;;;;;;9.85;9.05;;;;;;;;;;5039469;28;20242;-70
2022/08/18 10:14:37;;;;;;;10.00;8.02;;;;;;;;;;5039328;28;20209;-70
2022/08/18 10:17:09;;;;;;;9.02;8.25;;;;;;;;;;5039455;28;20206;-70
2022/08/18 10:19:38;;;;;;;11.65;9.68;;;;;;;;;;5039349;28;20198;-69
2022/08/18 10:22:08;;;;;;;8.02;7.43;;;;;;;;;;5039250;28;20197;-69
2022/08/18 10:24:35;;;;;;;9.75;8.02;;;;;;;;;;5039369;28;20221;-69
2022/08/18 10:27:02;;;;;;;9.80;8.75;;;;;;;;;;5039077;28;20437;-69
2022/08/18 10:29:47;;;;;;;7.80;7.20;;;;;;;;;;5039275;28;20205;-69
2022/08/18 10:32:18;;;;;;;8.18;7.43;;;;;;;;;;5039307;28;20201;-69
2022/08/18 10:34:46;;;;;;;7.80;7.13;;;;;;;;;;5039197;28;20230;-69
2022/08/18 10:37:14;;;;;;;8.27;7.55;;;;;;;;;;5038998;28;20514;-69
2022/08/18 10:39:44;;;;;;;7.75;7.15;;;;;;;;;;5039131;28;20242;-69
2022/08/18 10:42:13;;;;;;;8.15;7.10;;;;;;;;;;5039135;28;20197;-69
2022/08/18 10:44:42;;;;;;;7.80;6.97;;;;;;;;;;5039168;28;20409;-69
2022/08/18 10:47:08;;;;;;;8.85;8.00;;;;;;;;;;5038610;28;20242;-69
2022/08/18 10:49:36;;;;;;;8.40;7.60;;;;;;;;;;5039155;28;20223;-69
2022/08/18 10:52:17;;;;;;;8.10;7.30;;;;;;;;;;5038896;28;20501;-69
2022/08/18 10:55:03;;;;;;;8.27;7.22;;;;;;;;;;5038779;28;20201;-69
2022/08/18 10:57:32;;;;;;;7.50;6.90;;;;;;;;;;5038636;28;20546;-69
2022/08/18 11:00:01;;;;;;;7.95;7.13;;;;;;;;;;5038976;28;20205;-69
2022/08/18 11:02:36;;;;;;;9.65;7.95;;;;;;;;;;5038834;28;20204;-69
2022/08/18 11:05:05;;;;;;;6.97;6.28;;;;;;;;;;5038770;28;20277;-69
2022/08/18 11:07:31;;;;;;;7.78;6.55;;;;;;;;;;5038444;28;20274;-69
2022/08/18 11:09:59;;;;;;;11.10;8.13;;;;;;;;;;5038701;28;20213;-69
2022/08/18 11:12:43;;;;;;;9.93;6.65;;;;;;;;;;5041042;28;20227;-69
2022/08/18 11:15:15;;;;;;;7.10;6.50;;;;;;;;;;5042225;28;20231;-69
2022/08/18 11:17:47;;;;;;;6.90;6.43;;;;;;;;;;5041924;28;20204;-69
2022/08/18 11:20:15;;;;;;;7.70;6.88;;;;;;;;;;5041874;28;20205;-69
2022/08/18 11:22:49;;;;;;;7.22;6.63;;;;;;;;;;5041909;28;20427;-69
2022/08/18 11:25:24;;;;;;;6.85;6.22;;;;;;;;;;5041794;28;20266;-69
2022/08/18 11:27:50;;;;;;;6.68;6.07;;;;;;;;;;5041921;28;20264;-70
2022/08/18 11:30:18;;;;;;;6.35;5.82;;;;;;;;;;5042311;28;20301;-70
2022/08/18 11:32:44;;;;;;;7.45;6.85;;;;;;;;;;5041891;28;20198;-70
2022/08/18 11:35:13;;;;;;;6.15;5.60;;;;;;;;;;5041969;28;20237;-70
2022/08/18 11:37:43;;;;;;;7.25;6.65;;;;;;;;;;5041718;28;20197;-70
2022/08/18 11:40:20;;;;;;;7.00;6.40;;;;;;;;;;5042041;28;20234;-70
2022/08/18 11:42:52;;;;;;;8.23;6.82;;;;;;;;;;5041733;28;20205;-70
2022/08/18 11:45:19;;;;;;;8.20;7.00;;;;;;;;;;5041377;28;20411;-70
2022/08/18 11:47:59;;;;;;;9.15;6.68;;;;;;;;;;5041685;28;20197;-70
2022/08/18 11:50:26;;;;;;;6.88;6.30;;;;;;;;;;5041656;28;20197;-70
2022/08/18 11:52:53;;;;;;;6.95;6.35;;;;;;;;;;5041572;28;20274;-70
2022/08/18 11:55:20;;;;;;;8.95;7.53;;;;;;;;;;5041285;28;20433;-70
2022/08/18 11:57:53;;;;;;;7.40;6.80;;;;;;;;;;5041542;28;20197;-70
2022/08/18 12:00:35;;;;;;;8.05;7.43;;;;;;;;;;5041432;28;20392;-70
2022/08/18 12:03:02;;;;;;;7.70;7.05;;;;;;;;;;5041493;28;20229;-70
2022/08/18 12:05:28;;;;;;;8.70;6.57;;;;;;;;;;5041202;28;20352;-70
2022/08/18 12:07:54;;;;;;;7.60;6.45;;;;;;;;;;5041140;28;20201;-70
2022/08/18 12:10:22;;;;;;;7.88;7.00;;;;;;;;;;5041264;28;20258;-70
2022/08/18 12:12:50;;;;;;;7.88;7.13;;;;;;;;;;5041268;28;20266;-70
2022/08/18 12:15:26;;;;;;;6.93;6.32;;;;;;;;;;5041253;28;20197;-70
2022/08/18 12:17:52;;;;;;;8.05;7.47;;;;;;;;;;5041007;28;20217;-70
2022/08/18 12:20:18;;;;;;;8.38;7.45;;;;;;;;;;5041155;28;20262;-70
2022/08/18 12:22:45;;;;;;;6.97;6.40;;;;;;;;;;5040177;28;20198;-70
2022/08/18 12:25:13;;;;;;;7.22;6.65;;;;;;;;;;5041101;28;20221;-70
2022/08/18 12:27:39;;;;;;;6.95;6.28;;;;;;;;;;5041055;28;20201;-70
2022/08/18 12:30:06;;;;;;;7.47;6.85;;;;;;;;;;5041087;28;20197;-70
2022/08/18 12:32:34;;;;;;;7.03;6.47;;;;;;;;;;5040970;28;20250;-70
2022/08/18 12:35:01;;;;;;;8.43;6.25;;;;;;;;;;5041018;28;20193;-70
2022/08/18 12:37:28;;;;;;;7.82;7.15;;;;;;;;;;5040610;28;20198;-70
2022/08/18 12:39:56;;;;;;;7.82;6.57;;;;;;;;;;5040753;28;20197;-70
2022/08/18 12:42:22;;;;;;;6.93;6.22;;;;;;;;;;5040886;28;20269;-70
2022/08/18 12:44:49;;;;;;;6.65;6.15;;;;;;;;;;5040691;28;20217;-70
2022/08/18 12:47:17;;;;;;;7.00;6.15;;;;;;;;;;5040288;28;20242;-70
2022/08/18 12:49:44;;;;;;;5.88;5.47;;;;;;;;;;5040574;28;20202;-70
2022/08/18 12:52:11;;;;;;;10.18;6.07;;;;;;;;;;5040434;28;20243;-70
2022/08/18 12:54:38;;;;;;;6.22;5.72;;;;;;;;;;5040545;28;20509;-70
2022/08/18 12:57:05;;;;;;;6.22;5.65;;;;;;;;;;5040350;28;20458;-70
2022/08/18 12:59:32;;;;;;;6.22;5.60;;;;;;;;;;5040509;28;20234;-70
2022/08/18 13:01:58;;;;;;;6.05;5.63;;;;;;;;;;5040701;28;20209;-70
2022/08/18 13:04:24;;;;;;;6.60;6.05;;;;;;;;;;5040291;28;20218;-70
2022/08/18 13:06:53;;;;;;;9.25;5.68;;;;;;;;;;5040366;28;20201;-70
2022/08/18 13:09:20;;;;;;;6.25;5.63;;;;;;;;;;5040566;28;20235;-70
2022/08/18 13:11:46;;;;;;;6.80;6.20;;;;;;;;;;5040458;28;20222;-70
2022/08/18 13:14:14;;;;;;;6.88;5.68;;;;;;;;;;5040231;28;20185;-70
2022/08/18 13:16:41;;;;;;;6.63;5.95;;;;;;;;;;5039932;28;20201;-70
2022/08/18 13:19:08;;;;;;;10.38;6.88;;;;;;;;;;5040120;28;20201;-70
2022/08/18 13:21:35;;;;;;;10.57;6.15;;;;;;;;;;5040351;28;20424;-70
2022/08/18 13:24:03;;;;;;;6.40;5.80;;;;;;;;;;5040312;28;20447;-70
2022/08/18 13:26:31;;;;;;;6.38;5.90;;;;;;;;;;5039894;28;20222;-70
2022/08/18 13:28:58;;;;;;;7.57;6.32;;;;;;;;;;5040136;28;20206;-70
2022/08/18 13:31:25;;;;;;;6.18;5.57;;;;;;;;;;5039921;28;20497;-70
2022/08/18 13:33:51;;;;;;;6.85;5.72;;;;;;;;;;5039688;28;20204;-70
2022/08/18 13:36:18;;;;;;;7.18;5.63;;;;;;;;;;5039828;28;20194;-70
2022/08/18 13:38:44;;;;;;;7.35;5.75;;;;;;;;;;5039883;28;20235;-70
2022/08/18 13:41:12;;;;;;;6.70;6.22;;;;;;;;;;5039998;28;20223;-70
2022/08/18 13:43:40;;;;;;;6.95;6.30;;;;;;;;;;5039760;28;20197;-70
2022/08/18 13:46:07;;;;;;;8.05;6.57;;;;;;;;;;5039408;28;20280;-70
2022/08/18 13:48:34;;;;;;;8.15;5.85;;;;;;;;;;5039599;28;20205;-71
2022/08/18 13:51:01;;;;;;;8.23;6.18;;;;;;;;;;5039674;28;20234;-70
2022/08/18 13:53:28;;;;;;;6.25;5.75;;;;;;;;;;5039584;28;20217;-70
2022/08/18 13:55:56;;;;;;;6.90;6.30;;;;;;;;;;5039634;28;20256;-69
2022/08/18 13:58:23;;;;;;;6.53;5.93;;;;;;;;;;5039275;28;20268;-69
2022/08/18 14:00:51;;;;;;;6.38;5.78;;;;;;;;;;5039640;28;20205;-70
2022/08/18 14:03:19;;;;;;;5.60;5.20;;;;;;;;;;5039809;28;20242;-70
2022/08/18 14:05:47;;;;;;;5.43;5.03;;;;;;;;;;5039418;28;20297;-70
2022/08/18 14:08:13;;;;;;;4.88;4.63;;;;;;;;;;5039454;28;20201;-71
2022/08/18 14:10:39;;;;;;;6.22;5.63;;;;;;;;;;5039359;28;20201;-71
2022/08/18 14:13:06;;;;;;;11.13;6.18;;;;;;;;;;5039382;28;20197;-71
2022/08/18 14:15:38;;;;;;;6.68;5.57;;;;;;;;;;5039379;28;20290;-71
2022/08/18 14:18:04;;;;;;;6.05;5.55;;;;;;;;;;5039138;28;20201;-71
2022/08/18 14:28:43;;;;;;;7.28;5.63;;;;;;;;;;5039208;28;20191;-71
2022/08/18 14:31:11;;;;;;;5.85;5.40;;;;;;;;;;5039332;28;20198;-71
2022/08/18 14:33:37;;;;;;;7.20;5.47;;;;;;;;;;5038794;28;20528;-69
2022/08/18 14:36:04;;;;;;;6.03;5.22;;;;;;;;;;5038430;28;20559;-69
2022/08/18 14:38:30;;;;;;;5.68;5.28;;;;;;;;;;5038300;28;20221;-70
2022/08/18 14:40:58;;;;;;;6.03;5.45;;;;;;;;;;5038472;28;20197;-69
2022/08/18 14:43:24;;;;;;;5.55;5.03;;;;;;;;;;5038636;28;20247;-69
2022/08/18 14:45:52;;;;;;;6.32;5.70;;;;;;;;;;5038867;28;20221;-70
2022/08/18 14:48:21;;;;;;;5.50;5.25;;;;;;;;;;5041665;28;20205;-70
2022/08/18 14:50:49;;;;;;;6.50;6.00;;;;;;;;;;5041721;28;20207;-70
2022/08/18 14:53:15;;;;;;;6.22;5.78;;;;;;;;;;5041853;28;20246;-70
2022/08/18 14:55:43;;;;;;;5.97;5.47;;;;;;;;;;5041858;28;20200;-69
2022/08/18 14:58:09;;;;;;;6.30;5.85;;;;;;;;;;5041482;28;20229;-70
2022/08/18 15:00:35;;;;;;;6.53;5.93;;;;;;;;;;5041627;28;20231;-70
2022/08/18 15:03:05;;;;;;;6.30;5.80;;;;;;;;;;5041595;28;20205;-70
2022/08/18 15:05:32;;;;;;;6.13;5.70;;;;;;;;;;5041237;28;20224;-70
2022/08/18 15:07:59;;;;;;;5.75;5.35;;;;;;;;;;5041636;28;20465;-70
2022/08/18 15:10:25;;;;;;;5.80;5.30;;;;;;;;;;5041747;28;20201;-70
2022/08/18 15:12:52;;;;;;;8.90;5.63;;;;;;;;;;5041507;28;20242;-69
2022/08/18 15:15:18;;;;;;;6.07;5.68;;;;;;;;;;5041412;28;20501;-69